Terminal Aerodrome Forecast
Issued by NWS Nashville, TN

Home | Current Version | Previous Version | Text Only | Print | Product List | Glossary On
Versions: 1 2 3 4 5 6 7 8 9 10 11 12 13 14 15 16 17 18 19 20 21 22 23 24 25 26
000
FTUS44 KOHX 222004 AAB
TAFBNA
TAF AMD
KBNA 222004Z 2220/2318 17011KT 6SM -SHRA BR BKN010 OVC018
     FM222200 15011G17KT 4SM -SHRA OVC025
     FM230000 17012G18KT P6SM OVC045
     FM230700 19012G17KT P6SM OVC025
     FM231200 19012G18KT P6SM VCTS OVC015CB
     FM231500 20014G20KT 5SM TSRA OVC007CB=

USA.gov is the U.S. government's official web portal to all federal, state and local government web resources and services.